Time,TemperatureF,DewpointF,PressureIn,WindDirection,WindDirectionDegrees,WindSpeedMPH,WindSpeedGustMPH,Humidity,HourlyPrecipIn,Conditions,Clouds,dailyrainin,SolarRadiationWatts/m^2,SoftwareType,DateUTC
2013-11-09 00:04:00,41.1,21.4,29.97,West,268,3.0,6.0,45,0.00,,,0.00,0,WeatherCatV1.23B16,2013-11-09 08:04:00,
2013-11-09 00:09:00,40.9,22.2,29.97,NW,306,1.0,5.0,47,0.00,,,0.00,0,WeatherCatV1.23B16,2013-11-09 08:09:00,
2013-11-09 00:14:00,40.9,22.7,29.96,NW,307,3.0,7.0,48,0.00,,,0.00,0,WeatherCatV1.23B16,2013-11-09 08:14:00,
2013-11-09 00:19:00,41.1,22.9,29.96,WNW,297,7.0,11.0,48,0.00,,,0.00,0,WeatherCatV1.23B16,2013-11-09 08:19:00,
2013-11-09 00:24:00,41.2,23.0,29.96,WNW,293,3.0,4.0,48,0.00,,,0.00,0,WeatherCatV1.23B16,2013-11-09 08:24:00,
2013-11-09 00:29:00,41.1,22.9,29.96,WNW,288,0.0,0.0,48,0.00,,,0.00,0,WeatherCatV1.23B16,2013-11-09 08:29:00,
2013-11-09 00:34:00,40.9,23.2,29.96,NW,314,3.0,3.0,49,0.00,,,0.00,0,WeatherCatV1.23B16,2013-11-09 08:34:00,
2013-11-09 00:39:00,40.8,24.1,29.96,WNW,297,0.0,1.0,51,0.00,,,0.00,0,WeatherCatV1.23B16,2013-11-09 08:39:00,
2013-11-09 00:44:00,40.6,24.4,29.95,NW,305,1.0,2.0,52,0.00,,,0.00,0,WeatherCatV1.23B16,2013-11-09 08:44:00,
2013-11-09 00:49:00,40.3,24.1,29.95,NW,320,0.0,3.0,52,0.00,,,0.00,0,WeatherCatV1.23B16,2013-11-09 08:49:00,
2013-11-09 00:54:00,40.2,24.9,29.95,NW,320,2.0,3.0,54,0.00,,,0.00,0,WeatherCatV1.23B16,2013-11-09 08:54:00,
2013-11-09 00:59:00,40.1,24.8,29.95,NW,318,1.0,3.0,54,0.00,,,0.00,0,WeatherCatV1.23B16,2013-11-09 08:59:00,
2013-11-09 01:04:00,40.1,24.4,29.95,NNW,332,0.0,3.0,53,0.00,,,0.00,0,WeatherCatV1.23B16,2013-11-09 09:04:00,
2013-11-09 01:09:00,40.1,23.9,29.95,NW,326,2.0,4.0,52,0.00,,,0.00,0,WeatherCatV1.23B16,2013-11-09 09:09:00,
2013-11-09 01:14:00,40.2,23.1,29.96,WNW,293,4.0,6.0,50,0.00,,,0.00,0,WeatherCatV1.23B16,2013-11-09 09:14:00,
2013-11-09 01:19:00,40.5,22.9,29.96,NW,315,6.0,7.0,49,0.00,,,0.00,0,WeatherCatV1.23B16,2013-11-09 09:19:00,
2013-11-09 01:24:00,40.5,22.4,29.96,WNW,299,2.0,7.0,48,0.00,,,0.00,0,WeatherCatV1.23B16,2013-11-09 09:24:00,
2013-11-09 01:29:00,40.9,21.7,29.94,WNW,297,3.0,10.0,46,0.00,,,0.00,0,WeatherCatV1.23B16,2013-11-09 09:29:00,
2013-11-09 01:34:00,41.3,21.0,29.94,WNW,298,7.0,12.0,44,0.00,,,0.00,0,WeatherCatV1.23B16,2013-11-09 09:34:00,
2013-11-09 01:39:00,41.8,20.4,29.94,West,274,4.0,9.0,42,0.00,,,0.00,0,WeatherCatV1.23B16,2013-11-09 09:39:00,
2013-11-09 01:44:00,42.1,20.7,29.95,NW,314,3.0,11.0,42,0.00,,,0.00,0,WeatherCatV1.23B16,2013-11-09 09:44:00,
2013-11-09 01:49:00,42.1,21.2,29.95,NW,314,6.0,6.0,43,0.00,,,0.00,0,WeatherCatV1.23B16,2013-11-09 09:49:00,
2013-11-09 01:54:00,42.1,21.8,29.95,West,268,0.0,1.0,44,0.00,,,0.00,0,WeatherCatV1.23B16,2013-11-09 09:54:00,
2013-11-09 01:59:00,41.6,20.8,29.95,WNW,293,3.0,9.0,43,0.00,,,0.00,0,WeatherCatV1.23B16,2013-11-09 09:59:00,
2013-11-09 02:04:00,41.6,20.2,29.95,NW,324,3.0,4.0,42,0.00,,,0.00,0,WeatherCatV1.23B16,2013-11-09 10:04:00,
2013-11-09 02:09:00,41.6,20.8,29.95,West,270,0.0,0.0,43,0.00,,,0.00,0,WeatherCatV1.23B16,2013-11-09 10:09:00,
2013-11-09 02:14:00,41.5,20.1,29.97,WNW,300,0.0,6.0,42,0.00,,,0.00,0,WeatherCatV1.23B16,2013-11-09 10:14:00,
2013-11-09 02:19:00,41.5,20.1,29.97,NW,316,0.0,5.0,42,0.00,,,0.00,0,WeatherCatV1.23B16,2013-11-09 10:19:00,
2013-11-09 02:24:00,41.5,20.1,29.97,NNW,341,2.0,3.0,42,0.00,,,0.00,0,WeatherCatV1.23B16,2013-11-09 10:24:00,
2013-11-09 02:29:00,41.5,20.1,29.97,West,272,0.0,5.0,42,0.00,,,0.00,0,WeatherCatV1.23B16,2013-11-09 10:29:00,
2013-11-09 02:34:00,41.5,19.6,29.97,WNW,293,3.0,3.0,41,0.00,,,0.00,0,WeatherCatV1.23B16,2013-11-09 10:34:00,
2013-11-09 02:39:00,41.5,20.1,29.97,WNW,293,0.0,1.0,42,0.00,,,0.00,0,WeatherCatV1.23B16,2013-11-09 10:39:00,
2013-11-09 02:44:00,41.5,19.6,29.97,WNW,293,0.0,0.0,41,0.00,,,0.00,0,WeatherCatV1.23B16,2013-11-09 10:44:00,
2013-11-09 02:49:00,41.5,19.6,29.97,WNW,293,0.0,1.0,41,0.00,,,0.00,0,WeatherCatV1.23B16,2013-11-09 10:49:00,
2013-11-09 02:54:00,41.5,20.1,29.97,NW,322,3.0,4.0,42,0.00,,,0.00,0,WeatherCatV1.23B16,2013-11-09 10:54:00,
2013-11-09 02:59:00,41.3,19.4,29.98,West,279,1.0,4.0,41,0.00,,,0.00,0,WeatherCatV1.23B16,2013-11-09 10:59:00,
2013-11-09 03:04:00,41.5,19.6,29.98,WNW,288,0.0,2.0,41,0.00,,,0.00,0,WeatherCatV1.23B16,2013-11-09 11:04:00,
2013-11-09 03:09:00,41.5,19.6,29.98,WNW,288,0.0,2.0,41,0.00,,,0.00,0,WeatherCatV1.23B16,2013-11-09 11:09:00,
2013-11-09 03:14:00,41.5,19.0,29.98,WNW,288,3.0,4.0,40,0.00,,,0.00,0,WeatherCatV1.23B16,2013-11-09 11:14:00,
2013-11-09 03:19:00,41.6,18.5,29.98,WNW,288,3.0,3.0,39,0.00,,,0.00,0,WeatherCatV1.23B16,2013-11-09 11:19:00,
2013-11-09 03:24:00,41.8,18.7,29.98,WNW,288,0.0,1.0,39,0.00,,,0.00,0,WeatherCatV1.23B16,2013-11-09 11:24:00,
2013-11-09 03:29:00,41.9,18.8,29.98,WNW,288,2.0,2.0,39,0.00,,,0.00,0,WeatherCatV1.23B16,2013-11-09 11:29:00,
2013-11-09 03:34:00,41.9,18.8,29.98,WNW,288,0.0,1.0,39,0.00,,,0.00,0,WeatherCatV1.23B16,2013-11-09 11:34:00,
2013-11-09 03:39:00,42.1,18.4,29.98,WNW,288,1.0,3.0,38,0.00,,,0.00,0,WeatherCatV1.23B16,2013-11-09 11:39:00,
2013-11-09 03:44:00,42.1,18.4,29.98,WNW,288,0.0,0.0,38,0.00,,,0.00,0,WeatherCatV1.23B16,2013-11-09 11:44:00,
2013-11-09 03:49:00,42.1,18.4,29.98,WNW,288,0.0,0.0,38,0.00,,,0.00,0,WeatherCatV1.23B16,2013-11-09 11:49:00,
2013-11-09 03:54:00,42.2,18.4,29.98,NNW,330,4.0,5.0,38,0.00,,,0.00,0,WeatherCatV1.23B16,2013-11-09 11:54:00,
2013-11-09 03:59:00,42.2,18.4,29.98,NNW,336,4.0,5.0,38,0.00,,,0.00,0,WeatherCatV1.23B16,2013-11-09 11:59:00,
2013-11-09 04:04:00,42.3,17.9,29.98,NNW,341,2.0,2.0,37,0.00,,,0.00,0,WeatherCatV1.23B16,2013-11-09 12:04:00,
2013-11-09 04:09:00,42.3,17.9,29.98,NNW,339,3.0,3.0,37,0.00,,,0.00,0,WeatherCatV1.23B16,2013-11-09 12:09:00,
2013-11-09 04:14:00,42.3,17.9,30.01,NNW,339,0.0,0.0,37,0.00,,,0.00,0,WeatherCatV1.23B16,2013-11-09 12:14:00,
2013-11-09 04:19:00,42.3,17.9,30.01,NNW,339,0.0,0.0,37,0.00,,,0.00,0,WeatherCatV1.23B16,2013-11-09 12:19:00,
2013-11-09 04:24:00,42.5,17.5,30.01,NNW,339,0.0,4.0,36,0.00,,,0.00,0,WeatherCatV1.23B16,2013-11-09 12:24:00,
2013-11-09 04:29:00,42.6,17.5,30.00,NNW,339,0.0,0.0,36,0.00,,,0.00,0,WeatherCatV1.23B16,2013-11-09 12:29:00,
2013-11-09 04:34:00,42.5,17.5,30.00,NNW,339,0.0,0.0,36,0.00,,,0.00,0,WeatherCatV1.23B16,2013-11-09 12:34:00,
2013-11-09 04:39:00,42.6,17.5,30.00,NNW,339,0.0,0.0,36,0.00,,,0.00,0,WeatherCatV1.23B16,2013-11-09 12:39:00,
2013-11-09 04:44:00,42.6,17.5,29.99,NNW,339,0.0,0.0,36,0.00,,,0.00,0,WeatherCatV1.23B16,2013-11-09 12:44:00,
2013-11-09 04:49:00,42.6,17.5,29.99,NNW,339,0.0,0.0,36,0.00,,,0.00,0,WeatherCatV1.23B16,2013-11-09 12:49:00,
2013-11-09 04:54:00,42.8,18.4,29.99,NNW,339,0.0,0.0,37,0.00,,,0.00,0,WeatherCatV1.23B16,2013-11-09 12:54:00,
2013-11-09 04:59:00,42.8,18.4,30.00,NNW,338,0.0,0.0,37,0.00,,,0.00,0,WeatherCatV1.23B16,2013-11-09 12:59:00,
2013-11-09 05:04:00,42.8,17.7,30.00,NNW,338,0.0,3.0,36,0.00,,,0.00,0,WeatherCatV1.23B16,2013-11-09 13:04:00,
2013-11-09 05:09:00,42.8,17.7,30.00,NNW,338,0.0,0.0,36,0.00,,,0.00,0,WeatherCatV1.23B16,2013-11-09 13:09:00,
2013-11-09 05:14:00,42.9,17.8,30.01,NNW,338,0.0,0.0,36,0.00,,,0.00,0,WeatherCatV1.23B16,2013-11-09 13:14:00,
2013-11-09 05:19:00,42.9,17.8,30.01,NNW,338,0.0,0.0,36,0.00,,,0.00,0,WeatherCatV1.23B16,2013-11-09 13:19:00,
2013-11-09 05:24:00,42.9,17.8,30.01,NNW,338,0.0,0.0,36,0.00,,,0.00,0,WeatherCatV1.23B16,2013-11-09 13:24:00,
2013-11-09 05:29:00,42.9,17.8,30.02,NNW,338,0.0,0.0,36,0.00,,,0.00,0,WeatherCatV1.23B16,2013-11-09 13:29:00,
2013-11-09 05:34:00,42.9,17.8,30.02,NNW,338,0.0,0.0,36,0.00,,,0.00,0,WeatherCatV1.23B16,2013-11-09 13:34:00,
2013-11-09 05:39:00,42.8,17.7,30.02,NNW,338,0.0,0.0,36,0.00,,,0.00,0,WeatherCatV1.23B16,2013-11-09 13:39:00,
2013-11-09 05:44:00,42.8,17.1,30.02,NNW,338,0.0,0.0,35,0.00,,,0.00,0,WeatherCatV1.23B16,2013-11-09 13:44:00,
2013-11-09 05:49:00,42.8,17.1,30.02,NNW,338,0.0,0.0,35,0.00,,,0.00,0,WeatherCatV1.23B16,2013-11-09 13:49:00,
2013-11-09 05:54:00,42.8,17.7,30.02,NNW,338,0.0,0.0,36,0.00,,,0.00,0,WeatherCatV1.23B16,2013-11-09 13:54:00,
2013-11-09 05:59:00,42.8,17.1,30.02,NNW,338,0.0,0.0,35,0.00,,,0.00,0,WeatherCatV1.23B16,2013-11-09 13:59:00,
2013-11-09 06:04:00,42.9,17.1,30.02,NNW,339,0.0,1.0,35,0.00,,,0.00,0,WeatherCatV1.23B16,2013-11-09 14:04:00,
2013-11-09 06:09:00,42.9,17.8,30.02,NNW,339,0.0,3.0,36,0.00,,,0.00,0,WeatherCatV1.23B16,2013-11-09 14:09:00,
2013-11-09 06:14:00,42.9,17.8,30.02,NNW,339,2.0,2.0,36,0.00,,,0.00,0,WeatherCatV1.23B16,2013-11-09 14:14:00,
2013-11-09 06:19:00,42.9,17.8,30.02,NNW,339,0.0,2.0,36,0.00,,,0.00,0,WeatherCatV1.23B16,2013-11-09 14:19:00,
2013-11-09 06:24:00,42.8,17.7,30.02,ENE,58,1.0,4.0,36,0.00,,,0.00,0,WeatherCatV1.23B16,2013-11-09 14:24:00,
2013-11-09 06:30:00,42.8,18.4,30.02,ENE,58,0.0,3.0,37,0.00,,,0.00,0,WeatherCatV1.23B16,2013-11-09 14:30:00,
2013-11-09 06:35:00,42.1,18.4,30.02,ENE,58,2.0,3.0,38,0.00,,,0.00,0,WeatherCatV1.23B16,2013-11-09 14:35:00,
2013-11-09 06:40:00,41.5,19.0,30.02,ENE,76,4.0,4.0,40,0.00,,,0.00,5,WeatherCatV1.23B16,2013-11-09 14:40:00,
2013-11-09 06:45:00,41.2,18.7,30.04,ENE,76,2.0,3.0,40,0.00,,,0.00,7,WeatherCatV1.23B16,2013-11-09 14:45:00,
2013-11-09 06:50:00,41.3,18.8,30.04,ENE,76,2.0,2.0,40,0.00,,,0.00,9,WeatherCatV1.23B16,2013-11-09 14:50:00,
2013-11-09 06:55:00,41.5,19.0,30.04,ENE,78,3.0,3.0,40,0.00,,,0.00,11,WeatherCatV1.23B16,2013-11-09 14:55:00,
2013-11-09 07:00:00,41.8,18.7,30.04,ENE,78,0.0,3.0,39,0.00,,,0.00,14,WeatherCatV1.23B16,2013-11-09 15:00:00,
2013-11-09 07:05:00,42.3,17.9,30.04,East,83,1.0,3.0,37,0.00,,,0.00,23,WeatherCatV1.23B16,2013-11-09 15:05:00,
2013-11-09 07:10:00,42.6,17.5,30.04,East,85,0.0,2.0,36,0.00,,,0.00,32,WeatherCatV1.23B16,2013-11-09 15:10:00,
2013-11-09 07:15:00,43.1,18.6,30.04,East,89,0.0,1.0,37,0.00,,,0.00,28,WeatherCatV1.23B16,2013-11-09 15:15:00,
2013-11-09 07:20:00,43.5,18.3,30.04,East,89,0.0,1.0,36,0.00,,,0.00,40,WeatherCatV1.23B16,2013-11-09 15:20:00,
2013-11-09 07:25:00,43.6,18.4,30.04,East,90,0.0,2.0,36,0.00,,,0.00,23,WeatherCatV1.23B16,2013-11-09 15:25:00,
2013-11-09 07:30:00,43.8,18.6,30.03,East,91,2.0,3.0,36,0.00,,,0.00,35,WeatherCatV1.23B16,2013-11-09 15:30:00,
2013-11-09 07:35:00,43.9,18.7,30.03,East,91,2.0,2.0,36,0.00,,,0.00,18,WeatherCatV1.23B16,2013-11-09 15:35:00,
2013-11-09 07:40:00,44.1,18.9,30.03,East,92,0.0,2.0,36,0.00,,,0.00,18,WeatherCatV1.23B16,2013-11-09 15:40:00,
2013-11-09 07:45:00,44.2,19.6,30.03,East,92,0.0,1.0,37,0.00,,,0.00,127,WeatherCatV1.23B16,2013-11-09 15:45:00,
2013-11-09 07:50:00,44.5,20.5,30.03,East,93,0.0,1.0,38,0.00,,,0.00,141,WeatherCatV1.23B16,2013-11-09 15:50:00,
2013-11-09 07:55:00,44.8,20.1,30.03,East,93,0.0,3.0,37,0.00,,,0.00,155,WeatherCatV1.23B16,2013-11-09 15:55:00,
2013-11-09 08:00:00,45.2,19.9,30.04,East,93,0.0,3.0,36,0.00,,,0.00,167,WeatherCatV1.23B16,2013-11-09 16:00:00,
2013-11-09 08:05:00,45.8,20.4,30.04,SE,130,0.0,5.0,36,0.00,,,0.00,181,WeatherCatV1.23B16,2013-11-09 16:05:00,
2013-11-09 08:10:00,46.4,20.2,30.04,ESE,107,0.0,4.0,35,0.00,,,0.00,195,WeatherCatV1.23B16,2013-11-09 16:10:00,
2013-11-09 08:15:00,46.8,21.3,30.03,ESE,112,0.0,1.0,36,0.00,,,0.00,209,WeatherCatV1.23B16,2013-11-09 16:15:00,
2013-11-09 08:20:00,47.3,20.4,30.03,ESE,105,0.0,3.0,34,0.00,,,0.00,223,WeatherCatV1.23B16,2013-11-09 16:20:00,
2013-11-09 08:25:00,47.6,20.6,30.03,ESE,104,0.0,3.0,34,0.00,,,0.00,237,WeatherCatV1.23B16,2013-11-09 16:25:00,
2013-11-09 08:30:00,48.0,21.0,30.03,ESE,106,1.0,5.0,34,0.00,,,0.00,250,WeatherCatV1.23B16,2013-11-09 16:30:00,
2013-11-09 08:35:00,48.2,20.5,30.03,ESE,114,0.0,3.0,33,0.00,,,0.00,264,WeatherCatV1.23B16,2013-11-09 16:35:00,
2013-11-09 08:40:00,48.2,19.7,30.03,ESE,116,2.0,2.0,32,0.00,,,0.00,278,WeatherCatV1.23B16,2013-11-09 16:40:00,
2013-11-09 08:45:00,48.2,19.0,30.03,ESE,105,0.0,4.0,31,0.00,,,0.00,292,WeatherCatV1.23B16,2013-11-09 16:45:00,
2013-11-09 08:50:00,48.5,20.0,30.03,ESE,107,0.0,3.0,32,0.00,,,0.00,306,WeatherCatV1.23B16,2013-11-09 16:50:00,
2013-11-09 08:55:00,48.6,21.5,30.03,SE,135,0.0,1.0,34,0.00,,,0.00,318,WeatherCatV1.23B16,2013-11-09 16:55:00,
2013-11-09 09:00:00,48.8,21.0,30.01,ESE,112,0.0,4.0,33,0.00,,,0.00,332,WeatherCatV1.23B16,2013-11-09 17:00:00,
2013-11-09 09:05:00,48.9,21.1,30.01,ESE,112,2.0,3.0,33,0.00,,,0.00,343,WeatherCatV1.23B16,2013-11-09 17:05:00,
2013-11-09 09:10:00,49.4,21.5,30.01,ESE,120,0.0,3.0,33,0.00,,,0.00,355,WeatherCatV1.23B16,2013-11-09 17:10:00,
2013-11-09 09:15:00,49.8,21.1,30.00,ESE,119,0.0,4.0,32,0.00,,,0.00,369,WeatherCatV1.23B16,2013-11-09 17:15:00,
2013-11-09 09:20:00,49.9,20.5,30.00,ESE,120,0.0,1.0,31,0.00,,,0.00,380,WeatherCatV1.23B16,2013-11-09 17:20:00,
2013-11-09 09:25:00,50.2,20.0,30.00,ESE,120,0.0,0.0,30,0.00,,,0.00,392,WeatherCatV1.23B16,2013-11-09 17:25:00,
2013-11-09 09:30:00,50.7,20.4,30.00,East,97,0.0,2.0,30,0.00,,,0.00,404,WeatherCatV1.23B16,2013-11-09 17:30:00,
2013-11-09 09:35:00,50.8,20.5,30.00,East,93,0.0,0.0,30,0.00,,,0.00,415,WeatherCatV1.23B16,2013-11-09 17:35:00,
2013-11-09 09:40:00,51.0,20.7,30.00,East,93,1.0,3.0,30,0.00,,,0.00,424,WeatherCatV1.23B16,2013-11-09 17:40:00,
2013-11-09 09:45:00,51.1,20.0,30.00,East,93,1.0,1.0,29,0.00,,,0.00,432,WeatherCatV1.23B16,2013-11-09 17:45:00,
2013-11-09 09:50:00,51.0,19.9,30.00,East,93,0.0,1.0,29,0.00,,,0.00,443,WeatherCatV1.23B16,2013-11-09 17:50:00,
2013-11-09 09:55:00,50.7,18.8,30.00,East,93,0.0,1.0,28,0.00,,,0.00,454,WeatherCatV1.23B16,2013-11-09 17:55:00,
2013-11-09 10:00:00,50.5,16.9,30.01,East,92,0.0,2.0,26,0.00,,,0.00,464,WeatherCatV1.23B16,2013-11-09 18:00:00,
2013-11-09 10:05:00,50.4,17.7,30.01,East,80,2.0,2.0,27,0.00,,,0.00,473,WeatherCatV1.23B16,2013-11-09 18:05:00,
2013-11-09 10:10:00,50.5,20.2,30.01,ENE,57,0.0,3.0,30,0.00,,,0.00,480,WeatherCatV1.23B16,2013-11-09 18:10:00,
2013-11-09 10:15:00,50.5,21.0,30.01,WNW,297,3.0,4.0,31,0.00,,,0.00,487,WeatherCatV1.23B16,2013-11-09 18:15:00,
2013-11-09 10:20:00,50.7,21.2,30.01,WNW,297,3.0,4.0,31,0.00,,,0.00,496,WeatherCatV1.23B16,2013-11-09 18:20:00,
2013-11-09 10:25:00,50.5,23.2,30.01,West,279,3.0,6.0,34,0.00,,,0.00,503,WeatherCatV1.23B16,2013-11-09 18:25:00,
2013-11-09 10:30:00,50.5,23.2,30.01,WNW,283,1.0,3.0,34,0.00,,,0.00,510,WeatherCatV1.23B16,2013-11-09 18:30:00,
2013-11-09 10:35:00,50.7,21.9,30.01,WNW,288,4.0,5.0,32,0.00,,,0.00,517,WeatherCatV1.23B16,2013-11-09 18:35:00,
2013-11-09 10:40:00,50.7,24.1,30.01,WNW,288,3.0,6.0,35,0.00,,,0.00,520,WeatherCatV1.23B16,2013-11-09 18:40:00,
2013-11-09 10:45:00,50.7,24.7,30.01,WNW,301,2.0,7.0,36,0.00,,,0.00,529,WeatherCatV1.23B16,2013-11-09 18:45:00,
2013-11-09 10:50:00,50.5,23.9,30.01,West,268,3.0,6.0,35,0.00,,,0.00,534,WeatherCatV1.23B16,2013-11-09 18:50:00,
2013-11-09 10:55:00,50.4,24.5,30.01,WNW,293,3.0,5.0,36,0.00,,,0.00,538,WeatherCatV1.23B16,2013-11-09 18:55:00,
2013-11-09 11:00:00,50.5,25.9,30.01,WSW,244,5.0,9.0,38,0.00,,,0.00,543,WeatherCatV1.23B16,2013-11-09 19:00:00,
2013-11-09 11:05:00,50.5,26.5,30.01,WNW,283,4.0,6.0,39,0.00,,,0.00,547,WeatherCatV1.23B16,2013-11-09 19:05:00,
2013-11-09 11:10:00,50.5,23.2,30.01,West,263,7.0,10.0,34,0.00,,,0.00,552,WeatherCatV1.23B16,2013-11-09 19:10:00,
2013-11-09 11:15:00,50.7,26.0,30.02,WNW,293,3.0,7.0,38,0.00,,,0.00,554,WeatherCatV1.23B16,2013-11-09 19:15:00,
2013-11-09 11:20:00,50.8,24.1,30.02,WNW,297,10.0,11.0,35,0.00,,,0.00,557,WeatherCatV1.23B16,2013-11-09 19:20:00,
2013-11-09 11:25:00,50.8,24.1,30.02,WNW,302,2.0,7.0,35,0.00,,,0.00,559,WeatherCatV1.23B16,2013-11-09 19:25:00,
2013-11-09 11:30:00,51.3,24.6,30.01,WNW,288,3.0,7.0,35,0.00,,,0.00,563,WeatherCatV1.23B16,2013-11-09 19:30:00,
2013-11-09 11:35:00,51.7,24.2,30.01,WNW,283,4.0,7.0,34,0.00,,,0.00,566,WeatherCatV1.23B16,2013-11-09 19:35:00,
2013-11-09 11:40:00,52.2,25.4,30.01,WNW,293,3.0,7.0,35,0.00,,,0.00,566,WeatherCatV1.23B16,2013-11-09 19:40:00,
2013-11-09 11:45:00,52.5,25.6,30.01,WNW,293,4.0,5.0,35,0.00,,,0.00,570,WeatherCatV1.23B16,2013-11-09 19:45:00,
2013-11-09 11:50:00,52.9,24.6,30.01,WNW,303,3.0,9.0,33,0.00,,,0.00,568,WeatherCatV1.23B16,2013-11-09 19:50:00,
2013-11-09 11:55:00,53.1,24.0,30.01,WNW,297,10.0,10.0,32,0.00,,,0.00,570,WeatherCatV1.23B16,2013-11-09 19:55:00,
2013-11-09 12:00:00,53.1,24.0,30.00,WNW,283,4.0,7.0,32,0.00,,,0.00,568,WeatherCatV1.23B16,2013-11-09 20:00:00,
2013-11-09 12:05:00,52.8,24.5,30.00,WNW,283,4.0,10.0,33,0.00,,,0.00,568,WeatherCatV1.23B16,2013-11-09 20:05:00,
2013-11-09 12:10:00,52.6,23.6,30.00,WNW,293,12.0,13.0,32,0.00,,,0.00,566,WeatherCatV1.23B16,2013-11-09 20:10:00,
2013-11-09 12:15:00,52.5,23.5,30.01,West,262,3.0,7.0,32,0.00,,,0.00,564,WeatherCatV1.23B16,2013-11-09 20:15:00,
2013-11-09 12:20:00,52.5,23.5,30.01,NW,318,7.0,10.0,32,0.00,,,0.00,563,WeatherCatV1.23B16,2013-11-09 20:20:00,
2013-11-09 12:25:00,52.5,24.2,30.01,North,356,1.0,4.0,33,0.00,,,0.00,559,WeatherCatV1.23B16,2013-11-09 20:25:00,
2013-11-09 12:30:00,52.6,22.1,30.00,NW,304,5.0,12.0,30,0.00,,,0.00,557,WeatherCatV1.23B16,2013-11-09 20:30:00,
2013-11-09 12:35:00,52.8,22.2,30.00,NW,305,14.0,14.0,30,0.00,,,0.00,555,WeatherCatV1.23B16,2013-11-09 20:35:00,
2013-11-09 12:40:00,52.6,25.7,30.00,WNW,300,7.0,11.0,35,0.00,,,0.00,550,WeatherCatV1.23B16,2013-11-09 20:40:00,
2013-11-09 12:45:00,52.9,23.9,29.99,WNW,293,4.0,7.0,32,0.00,,,0.00,548,WeatherCatV1.23B16,2013-11-09 20:45:00,
2013-11-09 12:50:00,53.1,23.3,29.99,NW,310,8.0,12.0,31,0.00,,,0.00,543,WeatherCatV1.23B16,2013-11-09 20:50:00,
2013-11-09 12:55:00,53.2,23.4,29.99,WNW,293,9.0,11.0,31,0.00,,,0.00,540,WeatherCatV1.23B16,2013-11-09 20:55:00,
2013-11-09 13:00:00,53.3,23.5,29.99,WNW,288,9.0,12.0,31,0.00,,,0.00,534,WeatherCatV1.23B16,2013-11-09 21:00:00,
2013-11-09 13:05:00,53.3,23.5,29.99,WNW,288,6.0,11.0,31,0.00,,,0.00,531,WeatherCatV1.23B16,2013-11-09 21:05:00,
2013-11-09 13:11:00,53.5,22.0,29.99,West,279,4.0,7.0,29,0.00,,,0.00,524,WeatherCatV1.23B16,2013-11-09 21:11:00,
2013-11-09 13:16:00,53.5,22.8,29.96,SW,236,4.0,12.0,30,0.00,,,0.00,515,WeatherCatV1.23B16,2013-11-09 21:16:00,
2013-11-09 13:21:00,53.6,22.1,29.96,WNW,297,5.0,7.0,29,0.00,,,0.00,508,WeatherCatV1.23B16,2013-11-09 21:21:00,
2013-11-09 13:26:00,53.6,21.3,29.96,NW,304,7.0,10.0,28,0.00,,,0.00,503,WeatherCatV1.23B16,2013-11-09 21:26:00,
2013-11-09 13:31:00,53.3,20.2,29.96,West,277,5.0,12.0,27,0.00,,,0.00,494,WeatherCatV1.23B16,2013-11-09 21:31:00,
2013-11-09 13:36:00,53.2,21.0,29.96,WNW,302,3.0,6.0,28,0.00,,,0.00,487,WeatherCatV1.23B16,2013-11-09 21:36:00,
2013-11-09 13:41:00,53.5,22.0,29.96,WSW,249,2.0,7.0,29,0.00,,,0.00,478,WeatherCatV1.23B16,2013-11-09 21:41:00,
2013-11-09 13:46:00,53.5,21.2,29.96,NW,309,4.0,13.0,28,0.00,,,0.00,471,WeatherCatV1.23B16,2013-11-09 21:46:00,
2013-11-09 13:51:00,53.5,22.0,29.96,WNW,293,4.0,7.0,29,0.00,,,0.00,462,WeatherCatV1.23B16,2013-11-09 21:51:00,
2013-11-09 13:56:00,53.6,22.1,29.96,West,265,4.0,11.0,29,0.00,,,0.00,452,WeatherCatV1.23B16,2013-11-09 21:56:00,
2013-11-09 14:01:00,53.8,22.3,29.96,NW,317,13.0,13.0,29,0.00,,,0.00,441,WeatherCatV1.23B16,2013-11-09 22:01:00,
2013-11-09 14:06:00,53.6,21.3,29.96,NW,316,7.0,7.0,28,0.00,,,0.00,432,WeatherCatV1.23B16,2013-11-09 22:06:00,
2013-11-09 14:11:00,53.5,21.2,29.96,West,266,6.0,9.0,28,0.00,,,0.00,336,WeatherCatV1.23B16,2013-11-09 22:11:00,
2013-11-09 14:16:00,53.2,22.6,29.98,West,261,0.0,7.0,30,0.00,,,0.00,25,WeatherCatV1.23B16,2013-11-09 22:16:00,
2013-11-09 14:21:00,53.1,23.3,29.98,WNW,288,5.0,5.0,31,0.00,,,0.00,23,WeatherCatV1.23B16,2013-11-09 22:21:00,
2013-11-09 14:26:00,52.9,21.5,29.98,West,276,5.0,10.0,29,0.00,,,0.00,23,WeatherCatV1.23B16,2013-11-09 22:26:00,
2013-11-09 14:31:00,52.8,21.4,29.98,WNW,288,3.0,10.0,29,0.00,,,0.00,28,WeatherCatV1.23B16,2013-11-09 22:31:00,
2013-11-09 14:36:00,52.6,21.3,29.98,West,266,2.0,6.0,29,0.00,,,0.00,23,WeatherCatV1.23B16,2013-11-09 22:36:00,
2013-11-09 14:41:00,52.6,22.8,29.98,West,271,2.0,3.0,31,0.00,,,0.00,21,WeatherCatV1.23B16,2013-11-09 22:41:00,
2013-11-09 14:46:00,52.6,21.3,29.98,West,270,2.0,10.0,29,0.00,,,0.00,21,WeatherCatV1.23B16,2013-11-09 22:46:00,
2013-11-09 14:51:00,52.6,22.1,29.98,WNW,283,8.0,8.0,30,0.00,,,0.00,23,WeatherCatV1.23B16,2013-11-09 22:51:00,
2013-11-09 14:56:00,52.5,21.2,29.98,NW,315,10.0,13.0,29,0.00,,,0.00,21,WeatherCatV1.23B16,2013-11-09 22:56:00,
2013-11-09 15:01:00,52.3,21.8,29.98,WNW,299,4.0,4.0,30,0.00,,,0.00,23,WeatherCatV1.23B16,2013-11-09 23:01:00,
2013-11-09 15:06:00,52.3,21.8,29.98,West,272,2.0,12.0,30,0.00,,,0.00,35,WeatherCatV1.23B16,2013-11-09 23:06:00,
2013-11-09 15:11:00,52.3,21.8,29.98,WNW,297,7.0,8.0,30,0.00,,,0.00,25,WeatherCatV1.23B16,2013-11-09 23:11:00,
2013-11-09 15:16:00,52.3,22.6,29.98,WNW,293,2.0,7.0,31,0.00,,,0.00,21,WeatherCatV1.23B16,2013-11-09 23:16:00,
2013-11-09 15:21:00,52.2,22.5,29.98,WNW,283,3.0,6.0,31,0.00,,,0.00,21,WeatherCatV1.23B16,2013-11-09 23:21:00,
2013-11-09 15:26:00,52.2,22.5,29.98,West,271,3.0,11.0,31,0.00,,,0.00,21,WeatherCatV1.23B16,2013-11-09 23:26:00,
2013-11-09 15:31:00,52.0,22.3,29.99,WNW,293,5.0,7.0,31,0.00,,,0.00,21,WeatherCatV1.23B16,2013-11-09 23:31:00,
2013-11-09 15:36:00,52.0,22.3,29.99,WNW,303,6.0,11.0,31,0.00,,,0.00,19,WeatherCatV1.23B16,2013-11-09 23:36:00,
2013-11-09 15:41:00,52.0,23.1,29.99,WNW,288,4.0,7.0,32,0.00,,,0.00,19,WeatherCatV1.23B16,2013-11-09 23:41:00,
2013-11-09 15:46:00,51.9,23.7,29.99,WNW,288,4.0,7.0,33,0.00,,,0.00,19,WeatherCatV1.23B16,2013-11-09 23:46:00,
2013-11-09 15:51:00,51.9,23.0,29.99,WNW,283,10.0,13.0,32,0.00,,,0.00,23,WeatherCatV1.23B16,2013-11-09 23:51:00,
2013-11-09 15:56:00,51.7,22.8,29.99,WNW,283,5.0,9.0,32,0.00,,,0.00,37,WeatherCatV1.23B16,2013-11-09 23:56:00,
2013-11-09 16:01:00,51.6,22.7,29.99,WNW,288,4.0,7.0,32,0.00,,,0.00,28,WeatherCatV1.23B16,2013-11-10 00:01:00,
2013-11-09 16:06:00,51.6,23.5,29.99,WNW,283,6.0,7.0,33,0.00,,,0.00,16,WeatherCatV1.23B16,2013-11-10 00:06:00,
2013-11-09 16:11:00,51.4,23.3,29.99,WNW,283,4.0,10.0,33,0.00,,,0.00,18,WeatherCatV1.23B16,2013-11-10 00:11:00,
2013-11-09 16:16:00,51.3,23.2,30.00,WNW,293,5.0,8.0,33,0.00,,,0.00,18,WeatherCatV1.23B16,2013-11-10 00:16:00,
2013-11-09 16:21:00,51.1,23.7,30.00,West,277,4.0,6.0,34,0.00,,,0.00,11,WeatherCatV1.23B16,2013-11-10 00:21:00,
2013-11-09 16:26:00,50.8,23.5,30.00,WNW,288,8.0,9.0,34,0.00,,,0.00,11,WeatherCatV1.23B16,2013-11-10 00:26:00,
2013-11-09 16:31:00,50.5,23.9,30.00,WNW,288,6.0,6.0,35,0.00,,,0.00,11,WeatherCatV1.23B16,2013-11-10 00:31:00,
2013-11-09 16:36:00,50.4,23.8,30.00,WNW,293,5.0,9.0,35,0.00,,,0.00,9,WeatherCatV1.23B16,2013-11-10 00:36:00,
2013-11-09 16:41:00,50.1,23.5,30.00,WNW,288,2.0,6.0,35,0.00,,,0.00,7,WeatherCatV1.23B16,2013-11-10 00:41:00,
2013-11-09 16:46:00,49.9,24.0,30.01,WNW,288,1.0,1.0,36,0.00,,,0.00,5,WeatherCatV1.23B16,2013-11-10 00:46:00,
2013-11-09 16:51:00,49.6,23.8,30.01,West,279,1.0,3.0,36,0.00,,,0.00,0,WeatherCatV1.23B16,2013-11-10 00:51:00,
2013-11-09 16:56:00,49.4,24.2,30.01,West,278,0.0,2.0,37,0.00,,,0.00,0,WeatherCatV1.23B16,2013-11-10 00:56:00,
2013-11-09 17:01:00,49.1,24.0,30.01,West,278,0.0,4.0,37,0.00,,,0.00,0,WeatherCatV1.23B16,2013-11-10 01:01:00,
2013-11-09 17:06:00,48.6,24.1,30.01,West,278,0.0,3.0,38,0.00,,,0.00,0,WeatherCatV1.23B16,2013-11-10 01:06:00,
2013-11-09 17:11:00,48.3,23.9,30.01,West,276,0.0,0.0,38,0.00,,,0.00,0,WeatherCatV1.23B16,2013-11-10 01:11:00,
2013-11-09 17:16:00,48.0,24.2,30.03,SW,228,3.0,4.0,39,0.00,,,0.00,0,WeatherCatV1.23B16,2013-11-10 01:16:00,
2013-11-09 17:21:00,47.6,23.9,30.03,SSW,209,2.0,4.0,39,0.00,,,0.00,0,WeatherCatV1.23B16,2013-11-10 01:21:00,
2013-11-09 17:26:00,47.0,24.0,30.03,SSW,209,3.0,4.0,40,0.00,,,0.00,0,WeatherCatV1.23B16,2013-11-10 01:26:00,
2013-11-09 17:31:00,46.5,23.5,30.03,SSW,209,0.0,3.0,40,0.00,,,0.00,0,WeatherCatV1.23B16,2013-11-10 01:31:00,
2013-11-09 17:36:00,46.2,23.2,30.03,SSW,209,0.0,1.0,40,0.00,,,0.00,0,WeatherCatV1.23B16,2013-11-10 01:36:00,
2013-11-09 17:41:00,46.1,23.1,30.03,SSW,212,0.0,0.0,40,0.00,,,0.00,0,WeatherCatV1.23B16,2013-11-10 01:41:00,
2013-11-09 17:46:00,46.0,23.0,30.06,WSW,247,2.0,3.0,40,0.00,,,0.00,0,WeatherCatV1.23B16,2013-11-10 01:46:00,
2013-11-09 17:51:00,45.8,23.5,30.06,WSW,247,0.0,2.0,41,0.00,,,0.00,0,WeatherCatV1.23B16,2013-11-10 01:51:00,
2013-11-09 17:56:00,45.7,22.8,30.06,WSW,247,0.0,2.0,40,0.00,,,0.00,0,WeatherCatV1.23B16,2013-11-10 01:56:00,
2013-11-09 18:01:00,45.5,22.0,30.06,SSW,200,0.0,0.0,39,0.00,,,0.00,0,WeatherCatV1.23B16,2013-11-10 02:01:00,
2013-11-09 18:06:00,45.5,20.1,30.06,SSW,200,0.0,2.0,36,0.00,,,0.00,0,WeatherCatV1.23B16,2013-11-10 02:06:00,
2013-11-09 18:11:00,45.5,18.8,30.06,SSW,199,0.0,3.0,34,0.00,,,0.00,0,WeatherCatV1.23B16,2013-11-10 02:11:00,
2013-11-09 18:16:00,45.8,21.6,30.07,SSW,199,0.0,1.0,38,0.00,,,0.00,0,WeatherCatV1.23B16,2013-11-10 02:16:00,
2013-11-09 18:21:00,46.0,19.9,30.07,SSW,199,0.0,0.0,35,0.00,,,0.00,0,WeatherCatV1.23B16,2013-11-10 02:21:00,
2013-11-09 18:26:00,46.1,20.6,30.07,SSW,199,0.0,0.0,36,0.00,,,0.00,0,WeatherCatV1.23B16,2013-11-10 02:26:00,
2013-11-09 18:31:00,46.1,21.3,30.07,SSW,199,0.0,0.0,37,0.00,,,0.00,0,WeatherCatV1.23B16,2013-11-10 02:31:00,
2013-11-09 18:36:00,46.1,18.6,30.07,SSW,199,0.0,0.0,33,0.00,,,0.00,0,WeatherCatV1.23B16,2013-11-10 02:36:00,
2013-11-09 18:41:00,46.1,17.2,30.07,SSW,199,1.0,2.0,31,0.00,,,0.00,0,WeatherCatV1.23B16,2013-11-10 02:41:00,
2013-11-09 18:46:00,46.0,19.9,30.07,SSW,201,0.0,2.0,35,0.00,,,0.00,0,WeatherCatV1.23B16,2013-11-10 02:46:00,
2013-11-09 18:51:00,46.0,19.2,30.07,SSW,201,0.0,0.0,34,0.00,,,0.00,0,WeatherCatV1.23B16,2013-11-10 02:51:00,
2013-11-09 18:56:00,45.8,19.7,30.07,SSW,201,0.0,0.0,35,0.00,,,0.00,0,WeatherCatV1.23B16,2013-11-10 02:56:00,
2013-11-09 19:01:00,45.7,22.2,30.08,SSW,201,0.0,0.0,39,0.00,,,0.00,0,WeatherCatV1.23B16,2013-11-10 03:01:00,
2013-11-09 19:06:00,45.5,22.6,30.08,SSW,201,0.0,0.0,40,0.00,,,0.00,0,WeatherCatV1.23B16,2013-11-10 03:06:00,
2013-11-09 19:11:00,45.5,23.2,30.08,SSW,201,0.0,0.0,41,0.00,,,0.00,0,WeatherCatV1.23B16,2013-11-10 03:11:00,
2013-11-09 19:16:00,45.5,23.2,30.06,SSW,201,0.0,3.0,41,0.00,,,0.00,0,WeatherCatV1.23B16,2013-11-10 03:16:00,
2013-11-09 19:21:00,45.5,22.0,30.06,SSW,201,0.0,0.0,39,0.00,,,0.00,0,WeatherCatV1.23B16,2013-11-10 03:21:00,
2013-11-09 19:26:00,45.5,20.1,30.06,SSW,201,0.0,0.0,36,0.00,,,0.00,0,WeatherCatV1.23B16,2013-11-10 03:26:00,
2013-11-09 19:31:00,45.4,20.7,30.07,SSW,201,0.0,0.0,37,0.00,,,0.00,0,WeatherCatV1.23B16,2013-11-10 03:31:00,
2013-11-09 19:36:00,45.4,20.7,30.07,SSW,201,0.0,0.0,37,0.00,,,0.00,0,WeatherCatV1.23B16,2013-11-10 03:36:00,
2013-11-09 19:41:00,45.2,19.2,30.07,SSW,201,0.0,0.0,35,0.00,,,0.00,0,WeatherCatV1.23B16,2013-11-10 03:41:00,
2013-11-09 19:46:00,45.2,19.2,30.07,SSW,201,0.0,0.0,35,0.00,,,0.00,0,WeatherCatV1.23B16,2013-11-10 03:46:00,
2013-11-09 19:51:00,45.2,22.3,30.07,SSW,201,0.0,0.0,40,0.00,,,0.00,0,WeatherCatV1.23B16,2013-11-10 03:51:00,
2013-11-09 19:56:00,45.5,22.6,30.07,SSW,201,0.0,2.0,40,0.00,,,0.00,0,WeatherCatV1.23B16,2013-11-10 03:56:00,
2013-11-09 20:01:00,45.5,22.6,30.07,SSW,201,0.0,2.0,40,0.00,,,0.00,0,WeatherCatV1.23B16,2013-11-10 04:01:00,
2013-11-09 20:06:00,45.5,22.6,30.07,SSW,201,0.0,0.0,40,0.00,,,0.00,0,WeatherCatV1.23B16,2013-11-10 04:06:00,
2013-11-09 20:11:00,45.5,22.6,30.07,SSW,201,0.0,0.0,40,0.00,,,0.00,0,WeatherCatV1.23B16,2013-11-10 04:11:00,
2013-11-09 20:16:00,45.4,20.7,30.03,SSW,201,0.0,0.0,37,0.00,,,0.00,0,WeatherCatV1.23B16,2013-11-10 04:16:00,
2013-11-09 20:21:00,45.4,21.3,30.03,SSW,201,0.0,3.0,38,0.00,,,0.00,0,WeatherCatV1.23B16,2013-11-10 04:21:00,
2013-11-09 20:26:00,45.4,20.7,30.03,SSW,201,0.0,0.0,37,0.00,,,0.00,0,WeatherCatV1.23B16,2013-11-10 04:26:00,
2013-11-09 20:31:00,45.2,18.5,30.04,SSW,201,2.0,3.0,34,0.00,,,0.00,0,WeatherCatV1.23B16,2013-11-10 04:31:00,
2013-11-09 20:36:00,45.1,17.7,30.04,SSW,201,0.0,1.0,33,0.00,,,0.00,0,WeatherCatV1.23B16,2013-11-10 04:36:00,
2013-11-09 20:41:00,45.2,19.2,30.04,SSW,201,1.0,2.0,35,0.00,,,0.00,0,WeatherCatV1.23B16,2013-11-10 04:41:00,
2013-11-09 20:46:00,45.2,19.9,30.04,SSW,200,0.0,4.0,36,0.00,,,0.00,0,WeatherCatV1.23B16,2013-11-10 04:46:00,
2013-11-09 20:51:00,45.1,20.4,30.04,SSW,200,0.0,0.0,37,0.00,,,0.00,0,WeatherCatV1.23B16,2013-11-10 04:51:00,
2013-11-09 20:56:00,45.1,20.4,30.04,South,174,3.0,4.0,37,0.00,,,0.00,0,WeatherCatV1.23B16,2013-11-10 04:56:00,
2013-11-09 21:01:00,45.4,20.7,30.04,SSE,166,3.0,4.0,37,0.00,,,0.00,0,WeatherCatV1.23B16,2013-11-10 05:01:00,
2013-11-09 21:02:00,45.4,20.7,30.04,SSE,166,2.0,4.0,37,0.00,,,0.00,0,WeatherCatV1.23B16,2013-11-10 05:02:00,
2013-11-09 21:03:00,45.5,20.8,30.04,SSE,166,2.0,3.0,37,0.00,,,0.00,0,WeatherCatV1.23B16,2013-11-10 05:03:00,
2013-11-09 21:05:00,45.7,20.3,30.04,SSE,166,3.0,3.0,36,0.00,,,0.00,0,WeatherCatV1.23B16,2013-11-10 05:05:00,
2013-11-09 21:06:00,45.7,20.3,30.04,SSE,165,4.0,4.0,36,0.00,,,0.00,0,WeatherCatV1.23B16,2013-11-10 05:06:00,
2013-11-09 21:08:00,45.8,20.4,30.04,SSE,165,3.0,3.0,36,0.00,,,0.00,0,WeatherCatV1.23B16,2013-11-10 05:08:00,
2013-11-09 21:13:00,45.8,19.0,30.04,SSE,166,2.0,2.0,34,0.00,,,0.00,0,WeatherCatV1.23B16,2013-11-10 05:13:00,
2013-11-09 21:18:00,45.4,16.6,30.03,South,174,0.0,4.0,31,0.00,,,0.00,0,WeatherCatV1.23B16,2013-11-10 05:18:00,
2013-11-09 21:23:00,45.1,16.3,30.03,South,174,0.0,3.0,31,0.00,,,0.00,0,WeatherCatV1.23B16,2013-11-10 05:23:00,
2013-11-09 21:28:00,44.8,16.8,30.03,South,174,1.0,4.0,32,0.00,,,0.00,0,WeatherCatV1.23B16,2013-11-10 05:28:00,
2013-11-09 21:33:00,44.6,15.9,30.04,South,175,4.0,4.0,31,0.00,,,0.00,0,WeatherCatV1.23B16,2013-11-10 05:33:00,
2013-11-09 21:38:00,44.6,15.9,30.04,South,175,0.0,0.0,31,0.00,,,0.00,0,WeatherCatV1.23B16,2013-11-10 05:38:00,
2013-11-09 21:43:00,44.6,17.3,30.04,South,175,0.0,0.0,33,0.00,,,0.00,0,WeatherCatV1.23B16,2013-11-10 05:43:00,
2013-11-09 21:48:00,44.6,16.6,30.04,South,175,0.0,0.0,32,0.00,,,0.00,0,WeatherCatV1.23B16,2013-11-10 05:48:00,
2013-11-09 21:53:00,44.6,16.6,30.04,South,175,2.0,5.0,32,0.00,,,0.00,0,WeatherCatV1.23B16,2013-11-10 05:53:00,
2013-11-09 21:58:00,44.5,15.8,30.04,South,175,2.0,3.0,31,0.00,,,0.00,0,WeatherCatV1.23B16,2013-11-10 05:58:00,
2013-11-09 22:03:00,44.3,15.6,30.04,South,175,0.0,0.0,31,0.00,,,0.00,0,WeatherCatV1.23B16,2013-11-10 06:03:00,
2013-11-09 22:08:00,44.2,15.5,30.04,South,175,2.0,3.0,31,0.00,,,0.00,0,WeatherCatV1.23B16,2013-11-10 06:08:00,
2013-11-09 22:13:00,44.2,15.5,30.04,South,175,0.0,3.0,31,0.00,,,0.00,0,WeatherCatV1.23B16,2013-11-10 06:13:00,
2013-11-09 22:18:00,44.2,15.5,30.06,South,175,1.0,5.0,31,0.00,,,0.00,0,WeatherCatV1.23B16,2013-11-10 06:18:00,
2013-11-09 22:23:00,44.2,15.5,30.06,South,176,4.0,4.0,31,0.00,,,0.00,0,WeatherCatV1.23B16,2013-11-10 06:23:00,
2013-11-09 22:28:00,44.3,14.8,30.06,South,176,1.0,6.0,30,0.00,,,0.00,0,WeatherCatV1.23B16,2013-11-10 06:28:00,
2013-11-09 22:33:00,44.5,14.2,30.06,South,176,0.0,0.0,29,0.00,,,0.00,0,WeatherCatV1.23B16,2013-11-10 06:33:00,
2013-11-09 22:38:00,44.6,14.3,30.06,South,176,0.0,0.0,29,0.00,,,0.00,0,WeatherCatV1.23B16,2013-11-10 06:38:00,
2013-11-09 22:44:00,44.6,14.3,30.06,South,176,2.0,2.0,29,0.00,,,0.00,0,WeatherCatV1.23B16,2013-11-10 06:44:00,
2013-11-09 22:49:00,44.6,14.3,30.04,South,176,2.0,3.0,29,0.00,,,0.00,0,WeatherCatV1.23B16,2013-11-10 06:49:00,
2013-11-09 22:54:00,44.6,15.1,30.04,South,176,0.0,3.0,30,0.00,,,0.00,0,WeatherCatV1.23B16,2013-11-10 06:54:00,
2013-11-09 22:59:00,44.8,14.5,30.04,South,176,2.0,3.0,29,0.00,,,0.00,0,WeatherCatV1.23B16,2013-11-10 06:59:00,
2013-11-09 23:04:00,44.9,15.4,30.03,South,176,2.0,3.0,30,0.00,,,0.00,0,WeatherCatV1.23B16,2013-11-10 07:04:00,
2013-11-09 23:09:00,44.9,14.6,30.03,South,176,0.0,1.0,29,0.00,,,0.00,0,WeatherCatV1.23B16,2013-11-10 07:09:00,
2013-11-09 23:14:00,44.9,14.6,30.03,South,176,0.0,2.0,29,0.00,,,0.00,0,WeatherCatV1.23B16,2013-11-10 07:14:00,
2013-11-09 23:19:00,44.9,15.4,30.01,South,176,0.0,0.0,30,0.00,,,0.00,0,WeatherCatV1.23B16,2013-11-10 07:19:00,
2013-11-09 23:24:00,44.9,14.6,30.01,South,176,0.0,0.0,29,0.00,,,0.00,0,WeatherCatV1.23B16,2013-11-10 07:24:00,
2013-11-09 23:29:00,44.8,14.5,30.01,South,177,2.0,4.0,29,0.00,,,0.00,0,WeatherCatV1.23B16,2013-11-10 07:29:00,
2013-11-09 23:34:00,44.6,15.1,30.02,South,177,0.0,0.0,30,0.00,,,0.00,0,WeatherCatV1.23B16,2013-11-10 07:34:00,
2013-11-09 23:39:00,44.5,14.2,30.02,South,177,0.0,2.0,29,0.00,,,0.00,0,WeatherCatV1.23B16,2013-11-10 07:39:00,
2013-11-09 23:44:00,44.5,14.2,30.02,South,177,1.0,2.0,29,0.00,,,0.00,0,WeatherCatV1.23B16,2013-11-10 07:44:00,
2013-11-09 23:49:00,44.3,14.8,30.01,South,178,0.0,2.0,30,0.00,,,0.00,0,WeatherCatV1.23B16,2013-11-10 07:49:00,
2013-11-09 23:54:00,44.3,14.1,30.01,South,178,0.0,3.0,29,0.00,,,0.00,0,WeatherCatV1.23B16,2013-11-10 07:54:00,
2013-11-09 23:59:00,44.2,14.0,30.01,South,178,0.0,4.0,29,0.00,,,0.00,0,WeatherCatV1.23B16,2013-11-10 07:59:00,